Time;durP1;ratioP1;P1;durP2;ratioP2;P2;SDS_P1;SDS_P2;PMS_P1;PMS_P2;Temp;Humidity;BMP_temperature;BMP_pressure;BME280_temperature;BME280_humidity;BME280_pressure;Samples;Min_cycle;Max_cycle;Signal;HPM_P1;HPM_P2
2022/01/03 00:02:14;;;;;;;;;45.00;42.67;;;;;-2.42;78.81;101585.31;6214731;23;8838;-69
2022/01/03 00:05:11;;;;;;;;;15.33;13.67;;;;;-2.31;78.64;101581.00;6214819;23;8792;-69
2022/01/03 00:08:07;;;;;;;;;21.67;21.33;;;;;-2.32;78.43;101576.66;6214857;23;9549;-69
2022/01/03 00:11:02;;;;;;;;;8.33;8.33;;;;;-2.27;78.71;101572.22;6213948;23;9482;-69
2022/01/03 00:13:58;;;;;;;;;10.67;10.67;;;;;-2.15;77.23;101571.47;6214498;23;8908;-69
2022/01/03 00:16:53;;;;;;;;;7.00;7.00;;;;;-2.17;76.59;101566.28;6195810;23;9708;-69
2022/01/03 00:19:49;;;;;;;;;6.00;4.00;;;;;-2.13;76.98;101547.69;6213307;23;8799;-70
2022/01/03 00:23:02;;;;;;;;;7.00;7.00;;;;;-2.28;77.18;101545.34;6215546;23;9625;-69
2022/01/03 00:26:00;;;;;;;;;3.33;3.33;;;;;-2.18;76.50;101542.94;6214487;23;8858;-70
2022/01/03 00:28:59;;;;;;;;;4.67;4.67;;;;;-2.19;76.67;101535.03;6214236;23;8814;-69
2022/01/03 00:31:57;;;;;;;;;3.00;3.00;;;;;-2.06;76.92;101541.16;6215134;23;8877;-69
2022/01/03 00:34:55;;;;;;;;;6.00;6.00;;;;;-2.04;76.80;101530.06;6214522;23;8885;-69
2022/01/03 00:37:51;;;;;;;;;7.00;6.67;;;;;-2.06;77.59;101518.63;6214641;23;8803;-69
2022/01/03 00:40:47;;;;;;;;;7.00;6.00;;;;;-2.07;77.38;101511.53;6214783;23;8838;-70
2022/01/03 00:43:44;;;;;;;;;9.33;5.33;;;;;-2.03;77.33;101496.50;6194018;23;8800;-69
2022/01/03 00:46:42;;;;;;;;;6.00;6.00;;;;;-1.96;77.22;101480.97;6214231;23;8799;-69
2022/01/03 00:49:39;;;;;;;;;5.33;5.33;;;;;-1.76;76.84;101475.28;6194678;23;8827;-69
2022/01/03 00:52:34;;;;;;;;;6.00;6.00;;;;;-1.93;77.90;101461.53;6214032;23;8810;-69
2022/01/03 00:55:30;;;;;;;;;1.00;1.00;;;;;-1.89;77.58;101464.63;6214073;23;8792;-69
2022/01/03 00:58:30;;;;;;;;;7.00;6.67;;;;;-2.01;78.37;101438.25;6195454;23;8814;-69
2022/01/03 01:01:27;;;;;;;;;4.00;4.00;;;;;-2.00;78.43;101450.75;6193940;23;8791;-69
2022/01/03 01:04:23;;;;;;;;;14.33;12.67;;;;;-1.77;78.04;101446.50;6213978;23;8889;-68
2022/01/03 01:07:20;;;;;;;;;2.33;2.33;;;;;-1.80;78.09;101430.69;6214154;23;8804;-69
2022/01/03 01:10:16;;;;;;;;;6.33;6.33;;;;;-1.71;77.71;101424.69;6214078;23;9485;-69
2022/01/03 01:13:14;;;;;;;;;6.00;6.00;;;;;-1.49;77.34;101421.47;6213749;23;8865;-69
2022/01/03 01:16:10;;;;;;;;;7.67;7.67;;;;;-1.52;78.00;101419.22;6212961;23;8837;-69
2022/01/03 01:19:06;;;;;;;;;9.00;4.67;;;;;-1.61;77.59;101407.88;6213203;23;8817;-70
2022/01/03 01:22:02;;;;;;;;;6.00;6.00;;;;;-1.67;76.46;101403.38;6213753;23;8874;-68
2022/01/03 01:28:26;;;;;;;;;3.67;3.67;;;;;-1.68;76.44;101399.03;6192501;23;8788;-69
2022/01/03 01:31:23;;;;;;;;;4.67;4.67;;;;;-1.46;76.39;101391.13;6213795;23;8884;-69
2022/01/03 01:34:26;;;;;;;;;6.33;6.33;;;;;-1.37;76.64;101392.47;6213827;23;8780;-69
2022/01/03 01:37:22;;;;;;;;;3.33;3.33;;;;;-1.51;76.32;101386.44;6195072;23;8788;-69
2022/01/03 01:40:18;;;;;;;;;6.00;6.00;;;;;-1.38;76.18;101384.53;6214036;23;8807;-69
2022/01/03 01:43:19;;;;;;;;;4.00;4.00;;;;;-1.62;75.82;101376.38;6213837;23;8783;-69
2022/01/03 01:46:18;;;;;;;;;9.00;9.00;;;;;-1.27;75.49;101381.84;6214885;23;9571;-69
2022/01/03 01:49:17;;;;;;;;;7.00;7.00;;;;;-1.41;75.54;101354.09;6213585;23;9482;-69
2022/01/03 01:52:19;;;;;;;;;6.00;4.00;;;;;-1.30;75.45;101354.38;6213683;23;8807;-69
2022/01/03 01:55:16;;;;;;;;;6.33;6.33;;;;;-1.34;75.80;101347.75;6213672;23;8788;-69
2022/01/03 01:58:29;;;;;;;;;6.67;6.67;;;;;-1.35;76.16;101340.66;6213768;23;8813;-69
2022/01/03 02:01:48;;;;;;;;;6.33;6.00;;;;;-1.16;75.41;101345.72;6212056;23;8791;-70
2022/01/03 02:04:46;;;;;;;;;4.00;4.00;;;;;-1.16;75.88;101339.47;6214639;23;8806;-69
2022/01/03 02:08:05;;;;;;;;;6.00;6.00;;;;;-1.26;76.08;101326.50;6193805;23;8815;-69
2022/01/03 02:11:32;;;;;;;;;3.67;3.67;;;;;-1.35;77.05;101316.25;6212677;23;8811;-69
2022/01/03 02:14:35;;;;;;;;;1.67;1.67;;;;;-1.09;76.33;101318.44;6214649;23;8827;-69
2022/01/03 02:17:31;;;;;;;;;5.33;5.33;;;;;-1.27;76.40;101305.03;6214636;23;8856;-70
2022/01/03 02:20:28;;;;;;;;;3.00;3.00;;;;;-1.29;77.32;101307.16;6214741;23;8772;-69
2022/01/03 02:23:24;;;;;;;;;3.00;3.00;;;;;-1.18;76.55;101298.16;6214394;23;9515;-69
2022/01/03 02:26:19;;;;;;;;;0.00;0.00;;;;;-1.12;76.34;101297.22;6214100;23;8795;-69
2022/01/03 02:29:15;;;;;;;;;3.33;3.33;;;;;-1.04;75.98;101285.16;6214466;23;9473;-69
2022/01/03 02:32:10;;;;;;;;;3.00;3.00;;;;;-1.07;76.08;101277.47;6214023;23;8811;-71
2022/01/03 02:35:06;;;;;;;;;3.00;3.00;;;;;-0.86;75.63;101280.38;6213850;23;8864;-69
2022/01/03 02:38:02;;;;;;;;;5.33;3.00;;;;;-0.99;75.97;101269.81;6212404;23;8886;-70
2022/01/03 02:40:58;;;;;;;;;3.67;3.67;;;;;-1.03;76.54;101263.19;6214345;23;8811;-70
2022/01/03 02:43:54;;;;;;;;;3.00;3.00;;;;;-0.89;76.60;101263.75;6231204;23;8889;-70
2022/01/03 02:46:49;;;;;;;;;6.67;6.67;;;;;-0.88;76.01;101243.69;6214444;23;8814;-70
2022/01/03 02:49:45;;;;;;;;;6.00;6.00;;;;;-0.75;75.47;101243.41;6231461;23;8799;-69
2022/01/03 02:52:41;;;;;;;;;1.00;1.00;;;;;-0.82;76.01;101244.63;6214288;23;8783;-69
2022/01/03 02:55:36;;;;;;;;;1.00;1.00;;;;;-0.88;76.21;101240.97;6215740;23;8814;-69
2022/01/03 02:58:32;;;;;;;;;4.00;4.00;;;;;-0.85;77.22;101229.59;6212274;23;8910;-70
2022/01/03 03:01:28;;;;;;;;;3.67;3.67;;;;;-0.97;78.21;101220.69;6212159;23;8830;-69
2022/01/03 03:04:23;;;;;;;;;6.00;3.33;;;;;-1.03;78.06;101221.66;6230962;23;8787;-69
2022/01/03 03:07:21;;;;;;;;;0.67;0.67;;;;;-0.77;78.20;101209.38;6215068;23;8791;-69
2022/01/03 03:10:19;;;;;;;;;3.33;3.33;;;;;-0.68;77.34;101206.06;6213718;23;8787;-69
2022/01/03 03:13:15;;;;;;;;;3.67;3.67;;;;;-0.79;78.76;101193.34;6214561;23;8846;-69
2022/01/03 03:16:12;;;;;;;;;3.33;3.33;;;;;-0.64;80.12;101195.50;6213530;23;8886;-70
2022/01/03 03:19:09;;;;;;;;;6.00;6.00;;;;;-0.54;80.37;101187.53;6213815;23;8831;-69
2022/01/03 03:22:04;;;;;;;;;6.00;6.00;;;;;-0.57;81.15;101172.56;6195016;23;8868;-69
2022/01/03 03:25:16;;;;;;;;;3.67;3.67;;;;;-0.49;81.68;101144.16;6213679;23;8795;-69
2022/01/03 03:28:15;;;;;;;;;7.67;7.67;;;;;-0.47;81.92;101135.75;6193772;23;11456;-69
2022/01/03 03:31:11;;;;;;;;;4.00;4.00;;;;;-0.44;82.25;101114.38;6214707;23;8814;-68
2022/01/03 03:34:06;;;;;;;;;10.33;10.33;;;;;-0.44;82.38;101130.66;6194906;23;8780;-70
2022/01/03 03:37:02;;;;;;;;;4.67;4.67;;;;;-0.58;83.23;101118.47;6213614;23;9532;-69
2022/01/03 03:39:58;;;;;;;;;7.00;7.00;;;;;-0.44;83.59;101121.69;6213807;23;8800;-68
2022/01/03 03:42:53;;;;;;;;;9.00;9.00;;;;;-0.45;83.75;101112.72;6213331;23;8841;-68
2022/01/03 03:45:49;;;;;;;;;6.00;6.00;;;;;-0.57;84.34;101095.66;6193448;23;8813;-69
2022/01/03 03:48:45;;;;;;;;;8.33;8.33;;;;;-0.44;83.93;101097.25;6214595;23;9538;-69
2022/01/03 03:51:41;;;;;;;;;8.33;6.33;;;;;-0.50;84.08;101092.78;6213467;23;8886;-69
2022/01/03 03:54:37;;;;;;;;;6.67;6.67;;;;;-0.42;83.40;101079.59;6214363;23;9503;-69
2022/01/03 03:57:33;;;;;;;;;6.00;6.00;;;;;-0.36;84.02;101073.19;6214651;23;8878;-70
2022/01/03 04:00:29;;;;;;;;;7.00;7.00;;;;;-0.47;84.27;101063.22;6215884;23;8892;-70
2022/01/03 04:03:24;;;;;;;;;7.67;7.67;;;;;-0.47;84.42;101059.66;6214577;23;8870;-69
2022/01/03 04:06:20;;;;;;;;;4.00;4.00;;;;;-0.38;83.93;101066.34;6215618;23;8842;-69
2022/01/03 04:09:16;;;;;;;;;8.33;8.33;;;;;-0.46;84.85;101062.16;6214709;23;8776;-69
2022/01/03 04:12:11;;;;;;;;;7.00;7.00;;;;;-0.41;85.02;101037.75;6195403;23;8791;-69
2022/01/03 04:15:08;;;;;;;;;8.33;7.67;;;;;-0.50;86.36;101033.00;6214503;23;8802;-69
2022/01/03 04:18:03;;;;;;;;;9.00;9.00;;;;;-0.62;87.45;101028.47;6214167;23;8800;-69
2022/01/03 04:20:59;;;;;;;;;10.00;10.00;;;;;-0.66;87.71;101023.81;6195465;23;8818;-70
2022/01/03 04:23:55;;;;;;;;;6.33;6.33;;;;;-0.76;88.68;101010.06;6195629;23;8791;-69
2022/01/03 04:26:51;;;;;;;;;8.33;8.33;;;;;-0.64;88.64;101013.50;6214647;23;8779;-69
2022/01/03 04:29:46;;;;;;;;;8.33;7.67;;;;;-0.57;88.08;101009.53;6214776;23;8791;-70
2022/01/03 04:32:42;;;;;;;;;5.33;5.33;;;;;-0.52;88.95;100992.50;6214441;23;8813;-70
2022/01/03 04:35:38;;;;;;;;;6.67;6.67;;;;;-0.51;88.61;100993.31;6214410;23;8843;-70
2022/01/03 04:38:34;;;;;;;;;7.00;7.00;;;;;-0.52;89.32;100978.09;6194801;23;8899;-69
2022/01/03 04:41:29;;;;;;;;;7.00;7.00;;;;;-0.48;89.15;100980.06;6214544;23;9477;-70
2022/01/03 04:44:25;;;;;;;;;12.67;10.00;;;;;-0.44;89.35;100966.81;6214252;23;8818;-69
2022/01/03 04:47:21;;;;;;;;;6.00;6.00;;;;;-0.59;89.29;100973.66;6214452;23;8780;-69
2022/01/03 04:50:16;;;;;;;;;6.33;6.33;;;;;-0.67;89.91;101001.25;6194346;23;11551;-69
2022/01/03 04:53:12;;;;;;;;;7.00;7.00;;;;;-0.62;90.44;101000.50;6214275;23;8814;-71
2022/01/03 04:56:10;;;;;;;;;6.00;6.00;;;;;-0.69;91.33;100994.41;6213761;23;8827;-69
2022/01/03 04:59:06;;;;;;;;;6.00;6.00;;;;;-0.73;92.25;100988.66;6213081;23;8886;-68
2022/01/03 05:02:03;;;;;;;;;9.00;9.00;;;;;-0.74;93.05;100999.78;6194096;23;8788;-68
2022/01/03 05:04:59;;;;;;;;;6.33;6.33;;;;;-0.52;91.86;100995.22;6213351;23;8799;-68
2022/01/03 05:07:55;;;;;;;;;9.67;9.67;;;;;-0.57;91.95;100978.84;6214278;23;8882;-69
2022/01/03 05:10:50;;;;;;;;;7.67;7.67;;;;;-0.59;92.79;100940.25;6214164;23;8913;-69
2022/01/03 05:13:46;;;;;;;;;4.67;4.67;;;;;-0.68;92.97;100906.44;6204504;23;8814;-69
2022/01/03 05:16:41;;;;;;;;;4.67;4.67;;;;;-0.64;92.97;100872.25;6212901;23;9513;-68
2022/01/03 05:19:37;;;;;;;;;8.33;6.67;;;;;-0.65;93.09;100884.19;6214901;23;8791;-69
2022/01/03 05:22:33;;;;;;;;;9.33;9.33;;;;;-0.56;92.91;100882.69;6215002;23;9504;-69
2022/01/03 05:25:28;;;;;;;;;8.33;8.33;;;;;-0.49;93.08;100880.59;6214761;23;8893;-69
2022/01/03 05:28:24;;;;;;;;;7.67;7.67;;;;;-0.53;92.88;100894.97;6214999;23;8799;-68
2022/01/03 05:31:20;;;;;;;;;7.67;7.33;;;;;-0.52;92.63;100891.16;6214454;23;8807;-68
2022/01/03 05:34:16;;;;;;;;;6.00;6.00;;;;;-0.62;93.04;100880.97;6212829;23;8803;-69
2022/01/03 05:37:12;;;;;;;;;6.00;6.00;;;;;-0.60;93.18;100868.78;6214690;23;8845;-68
2022/01/03 05:40:08;;;;;;;;;7.00;7.00;;;;;-0.35;92.87;100868.28;6215039;23;8904;-68
2022/01/03 05:43:04;;;;;;;;;6.00;6.00;;;;;-0.57;92.77;100851.97;6214928;23;8953;-69
2022/01/03 05:45:59;;;;;;;;;10.67;6.00;;;;;-0.58;93.23;100854.94;6213591;23;11548;-69
2022/01/03 05:48:55;;;;;;;;;6.00;6.00;;;;;-0.43;93.10;100859.75;6232695;23;8787;-69
2022/01/03 05:51:50;;;;;;;;;7.00;7.00;;;;;-0.35;93.07;100856.59;6214689;23;8853;-71
2022/01/03 05:54:46;;;;;;;;;6.00;6.00;;;;;-0.25;92.23;100842.28;6214621;23;8803;-70
2022/01/03 05:57:42;;;;;;;;;9.00;7.67;;;;;-0.36;93.09;100839.47;6212584;23;8818;-69
2022/01/03 06:00:37;;;;;;;;;4.00;4.00;;;;;-0.28;92.32;100830.84;6214529;23;8822;-69
2022/01/03 06:03:37;;;;;;;;;4.00;4.00;;;;;-0.29;92.28;100820.25;6213862;23;11606;-69
2022/01/03 06:06:53;;;;;;;;;7.00;7.00;;;;;-0.34;93.29;100809.31;6214141;23;8847;-69
2022/01/03 06:09:49;;;;;;;;;6.00;6.00;;;;;-0.30;92.85;100808.53;6214487;23;8807;-69
2022/01/03 06:12:47;;;;;;;;;6.67;6.67;;;;;-0.28;92.89;100808.28;6214109;23;8873;-69
2022/01/03 06:15:43;;;;;;;;;7.00;7.00;;;;;-0.05;92.89;100794.38;6213325;23;9360;-69
2022/01/03 06:18:40;;;;;;;;;6.33;6.00;;;;;-0.14;93.53;100797.81;6213589;23;8788;-69
2022/01/03 06:21:41;;;;;;;;;9.00;9.00;;;;;-0.02;93.60;100812.06;6213600;23;8874;-69
2022/01/03 06:24:39;;;;;;;;;6.00;6.00;;;;;0.02;92.66;100793.34;6214524;23;8795;-69
2022/01/03 06:27:35;;;;;;;;;7.00;6.00;;;;;0.13;92.77;100778.75;6213436;23;8800;-69
2022/01/03 06:30:30;;;;;;;;;4.67;3.33;;;;;0.05;93.38;100752.84;6213694;23;8810;-69
2022/01/03 06:33:26;;;;;;;;;3.00;3.00;;;;;-0.03;93.23;100766.94;6213636;23;8795;-69
2022/01/03 06:36:21;;;;;;;;;7.00;4.67;;;;;0.01;93.21;100756.38;6213249;23;9505;-69
2022/01/03 06:39:17;;;;;;;;;6.33;6.33;;;;;0.05;92.67;100741.97;6212715;23;8888;-68
2022/01/03 06:42:12;;;;;;;;;4.00;4.00;;;;;0.03;93.42;100744.13;6214082;23;8764;-68
2022/01/03 06:45:08;;;;;;;;;3.33;3.33;;;;;0.12;93.14;100742.56;6215567;23;11489;-69
2022/01/03 06:48:04;;;;;;;;;6.67;6.67;;;;;0.17;93.16;100747.25;6214712;23;9561;-69
2022/01/03 06:51:00;;;;;;;;;3.00;3.00;;;;;0.27;92.67;100734.53;6215663;23;11471;-69
2022/01/03 06:53:55;;;;;;;;;6.67;6.67;;;;;0.35;92.79;100725.06;6214238;23;12276;-69
2022/01/03 06:56:51;;;;;;;;;6.00;6.00;;;;;0.37;92.45;100714.72;6215145;23;11528;-69
2022/01/03 06:59:47;;;;;;;;;3.75;3.75;;;;;0.38;92.08;100697.31;6215259;23;11491;-69
2022/01/03 07:02:42;;;;;;;;;5.50;5.50;;;;;0.47;92.12;100690.31;6222033;22;12160;-71
2022/01/03 07:05:13;;;;;;;;;4.00;4.00;;;;;0.49;92.34;100677.25;6253815;23;11520;-72
2022/01/03 07:08:09;;;;;;;;;7.33;7.33;;;;;0.62;92.11;100665.09;6225280;23;11444;-71
2022/01/03 07:11:04;;;;;;;;;5.33;5.00;;;;;0.76;92.13;100654.50;6245127;23;11436;-73
2022/01/03 07:20:35;;;;;;;;;5.25;5.25;;;;;0.91;91.42;100645.56;6244614;23;11442;-73
2022/01/03 07:23:31;;;;;;;;;1.00;1.00;;;;;0.86;91.71;100638.22;6245026;23;11444;-72
2022/01/03 07:26:28;;;;;;;;;4.00;4.00;;;;;0.95;91.36;100612.09;6244843;23;11437;-72
2022/01/03 07:29:24;;;;;;;;;7.00;7.00;;;;;1.00;91.35;100612.13;6245397;23;11421;-72
2022/01/03 07:32:20;;;;;;;;;9.50;7.00;;;;;0.92;92.25;100619.97;6225043;23;11435;-72
2022/01/03 07:35:16;;;;;;;;;5.75;5.75;;;;;0.94;91.85;100613.19;6244229;23;11470;-72
2022/01/03 07:38:12;;;;;;;;;5.00;5.00;;;;;0.97;91.79;100603.66;6225222;23;11437;-71
2022/01/03 07:41:11;;;;;;;;;5.50;5.50;;;;;1.06;91.72;100594.69;6240481;22;11483;-72
2022/01/03 07:43:39;;;;;;;;;7.00;7.00;;;;;1.10;92.51;100568.56;6184223;23;11511;-71
2022/01/03 07:46:34;;;;;;;;;4.00;4.00;;;;;1.15;92.18;100565.03;6184422;23;11528;-71
2022/01/03 07:49:30;;;;;;;;;5.50;5.50;;;;;1.10;92.41;100562.28;6164419;23;11680;-73
2022/01/03 07:52:25;;;;;;;;;3.00;3.00;;;;;1.27;93.08;100565.56;6184567;23;11570;-72
2022/01/03 07:55:22;;;;;;;;;6.50;5.50;;;;;1.37;92.46;100554.66;6184785;23;11612;-71
2022/01/03 07:58:18;;;;;;;;;4.00;4.00;;;;;1.31;93.75;100536.69;6184857;23;11539;-71
2022/01/03 08:01:14;;;;;;;;;5.50;5.50;;;;;1.44;93.37;100531.78;6166129;23;11500;-72
2022/01/03 08:04:09;;;;;;;;;5.00;5.00;;;;;1.45;93.77;100525.22;6184637;23;11570;-72
2022/01/03 08:07:05;;;;;;;;;4.00;4.00;;;;;1.42;93.40;100509.44;6183998;23;11506;-72
2022/01/03 08:10:01;;;;;;;;;7.25;7.25;;;;;1.46;93.40;100522.25;6183553;23;11556;-72
2022/01/03 08:12:56;;;;;;;;;6.50;5.25;;;;;1.50;93.72;100509.69;6183575;23;11679;-72
2022/01/03 08:15:52;;;;;;;;;6.50;6.50;;;;;1.58;94.38;100508.31;6183763;23;12398;-72
2022/01/03 08:18:47;;;;;;;;;4.00;4.00;;;;;1.59;94.25;100507.22;6183647;23;11516;-72
2022/01/03 08:21:43;;;;;;;;;11.50;11.50;;;;;1.63;94.85;100497.41;6184543;23;11523;-71
2022/01/03 08:24:38;;;;;;;;;1.75;1.75;;;;;1.49;96.67;100493.63;6183417;23;11551;-72
2022/01/03 08:27:34;;;;;;;;;5.00;5.00;;;;;1.61;97.76;100496.84;6182946;23;11625;-72
2022/01/03 08:30:30;;;;;;;;;7.00;7.00;;;;;1.67;98.72;100485.66;6184156;23;11556;-73
2022/01/03 08:33:25;;;;;;;;;4.50;4.50;;;;;1.75;99.17;100448.00;6183651;23;11554;-72
2022/01/03 08:36:21;;;;;;;;;7.00;7.00;;;;;1.63;100.00;100457.34;6183922;23;12280;-72
2022/01/03 08:39:16;;;;;;;;;7.00;7.00;;;;;1.69;100.00;100452.69;6181311;23;11562;-71
2022/01/03 08:42:12;;;;;;;;;7.25;7.25;;;;;1.88;100.00;100437.34;6195667;23;11620;-71
2022/01/03 08:45:08;;;;;;;;;4.00;4.00;;;;;1.83;100.00;100431.91;6212767;23;11540;-71
2022/01/03 08:48:04;;;;;;;;;6.00;6.00;;;;;1.84;100.00;100416.34;6215032;23;11506;-71
2022/01/03 08:50:45;;;;;;;;;4.25;4.25;;;;;1.84;100.00;100405.44;6214822;23;11491;-72
2022/01/03 08:53:13;;;;;;;;;7.75;7.75;;;;;1.85;100.00;100393.47;6214697;23;11453;-71
2022/01/03 08:56:09;;;;;;;;;5.00;5.00;;;;;1.95;100.00;100391.50;6213311;23;11453;-71
2022/01/03 08:59:05;;;;;;;;;6.00;6.00;;;;;1.90;100.00;100380.59;6213478;23;12245;-72
2022/01/03 09:02:00;;;;;;;;;6.00;6.00;;;;;1.94;100.00;100361.78;6213834;23;11486;-72
2022/01/03 09:04:50;;;;;;;;;6.00;4.75;;;;;1.94;100.00;100350.88;6215227;23;11539;-73
2022/01/03 09:07:45;;;;;;;;;7.50;7.50;;;;;1.99;100.00;100341.81;6213911;23;11555;-73
2022/01/03 09:10:41;;;;;;;;;7.75;7.75;;;;;2.01;100.00;100334.19;6213203;23;11578;-72
2022/01/03 09:13:09;;;;;;;;;7.25;7.25;;;;;2.13;100.00;100330.00;6197498;23;11463;-72
2022/01/03 09:15:51;;;;;;;;;8.75;8.75;;;;;2.16;100.00;100325.91;6215052;23;11499;-72
2022/01/03 09:18:26;;;;;;;;;8.50;8.50;;;;;2.11;100.00;100309.56;6214751;23;11461;-72
2022/01/03 09:20:54;;;;;;;;;6.00;6.00;;;;;2.18;100.00;100301.88;6223539;23;11417;-72
2022/01/03 09:24:03;;;;;;;;;4.25;4.25;;;;;2.20;100.00;100294.22;6213977;23;12316;-72
2022/01/03 09:29:17;;;;;;;;;1.75;1.75;;;;;2.33;100.00;100299.03;6214852;23;11463;-73
2022/01/03 09:31:45;;;;;;;;;8.25;7.75;;;;;2.30;100.00;100285.13;6223484;23;11462;-73
2022/01/03 09:34:41;;;;;;;;;10.50;7.75;;;;;2.30;100.00;100285.97;6214164;23;11485;-72
2022/01/03 09:37:37;;;;;;;;;6.00;5.50;;;;;2.27;100.00;100274.78;6213606;23;11435;-70
2022/01/03 09:40:32;;;;;;;;;5.00;5.00;;;;;2.15;100.00;100281.44;6212465;23;11471;-70
2022/01/03 09:43:02;;;;;;;;;6.50;6.50;;;;;2.24;100.00;100278.91;6216605;23;11460;-71
2022/01/03 09:45:34;;;;;;;;;6.50;6.50;;;;;2.35;100.00;100275.00;6214124;23;11939;-71
2022/01/03 09:48:31;;;;;;;;;5.00;5.00;;;;;2.27;100.00;100264.69;6213099;23;11561;-71
2022/01/03 09:51:01;;;;;;;;;7.25;7.25;;;;;2.37;100.00;100253.66;6222929;23;11471;-71
2022/01/03 09:54:12;;;;;;;;;7.75;7.75;;;;;2.30;100.00;100236.00;6213670;23;11466;-71
2022/01/03 09:57:08;;;;;;;;;7.50;7.50;;;;;2.33;100.00;100208.16;6213262;23;11463;-72
2022/01/03 09:59:36;;;;;;;;;7.00;7.00;;;;;2.35;100.00;100212.22;6223784;23;12280;-72
2022/01/03 10:02:33;;;;;;;;;4.75;4.25;;;;;2.26;100.00;100211.22;6213051;23;11456;-72
2022/01/03 10:05:29;;;;;;;;;10.50;10.25;;;;;2.40;100.00;100209.44;6214268;23;11460;-71
2022/01/03 10:07:57;;;;;;;;;9.75;9.75;;;;;2.50;100.00;100206.59;6223738;23;11460;-71
2022/01/03 10:10:53;;;;;;;;;11.50;11.50;;;;;2.49;100.00;100201.44;6212968;23;11579;-71
2022/01/03 10:13:50;;;;;;;;;12.50;12.50;;;;;2.55;100.00;100194.84;6213349;23;11582;-70
2022/01/03 10:16:18;;;;;;;;;10.00;10.00;;;;;2.65;100.00;100185.72;6223438;23;11463;-71
2022/01/03 10:19:26;;;;;;;;;11.75;11.75;;;;;2.74;100.00;100187.50;6213588;23;11483;-71
2022/01/03 10:22:31;;;;;;;;;15.50;15.50;;;;;2.63;100.00;100182.47;6213081;23;12181;-70
2022/01/03 10:25:17;;;;;;;;;11.25;11.25;;;;;2.74;100.00;100175.78;6190412;23;11501;-70
2022/01/03 10:28:04;;;;;;;;;5.00;5.00;;;;;2.81;100.00;100170.78;6213381;23;12168;-70
2022/01/03 10:30:33;;;;;;;;;5.00;5.00;;;;;2.76;100.00;100168.94;6223304;23;11537;-70
2022/01/03 10:33:24;;;;;;;;;5.25;5.25;;;;;2.81;100.00;100164.50;6194051;23;11432;-71
2022/01/03 10:36:29;;;;;;;;;8.75;8.75;;;;;2.75;100.00;100139.16;6193332;23;11439;-71
2022/01/03 10:39:28;;;;;;;;;5.50;5.50;;;;;2.76;100.00;100127.97;6213753;23;11520;-71
2022/01/03 10:42:24;;;;;;;;;7.00;4.75;;;;;2.96;100.00;100123.34;6213065;23;11501;-70
2022/01/03 10:45:08;;;;;;;;;5.50;5.50;;;;;3.02;100.00;100117.50;6222784;23;11428;-71
2022/01/03 10:48:03;;;;;;;;;4.25;4.25;;;;;3.02;100.00;100089.38;6193266;23;11439;-71
2022/01/03 10:50:44;;;;;;;;;9.50;9.50;;;;;2.96;100.00;100096.03;6223183;23;11466;-71
2022/01/03 10:53:42;;;;;;;;;11.00;11.00;;;;;2.99;100.00;100096.25;6212883;23;11462;-72
2022/01/03 10:56:38;;;;;;;;;9.00;9.00;;;;;3.04;100.00;100093.44;6212949;23;11502;-71
2022/01/03 10:59:35;;;;;;;;;7.00;6.50;;;;;2.81;100.00;100088.03;6194535;23;11484;-71
2022/01/03 11:02:18;;;;;;;;;9.00;9.00;;;;;2.99;100.00;100079.03;6221850;23;11502;-71
2022/01/03 11:05:38;;;;;;;;;8.75;8.75;;;;;3.06;100.00;100072.09;6213593;23;11526;-71
2022/01/03 11:11:46;;;;;;;;;8.50;8.50;;;;;3.06;100.00;100055.69;6214020;23;11504;-71
2022/01/03 11:14:42;;;;;;;;;12.00;11.00;;;;;2.97;100.00;100060.22;6211995;23;11446;-71
2022/01/03 11:17:37;;;;;;;;;10.00;10.00;;;;;2.91;100.00;100069.56;6213153;23;11603;-71
2022/01/03 11:20:33;;;;;;;;;7.75;7.75;;;;;3.05;100.00;100066.94;6194293;23;11461;-71
2022/01/03 11:23:29;;;;;;;;;22.75;11.50;;;;;2.91;100.00;100075.03;6212977;23;11545;-72
2022/01/03 11:26:26;;;;;;;;;11.50;11.00;;;;;2.95;100.00;100064.34;6212139;23;11658;-72
2022/01/03 11:29:22;;;;;;;;;7.75;7.75;;;;;3.11;100.00;100063.00;6215612;23;11477;-71
2022/01/03 11:31:54;;;;;;;;;11.75;11.75;;;;;3.09;100.00;100057.03;6224819;23;11484;-71
2022/01/03 11:34:24;;;;;;;;;9.50;9.50;;;;;3.14;100.00;100045.22;6189810;23;12281;-71
2022/01/03 11:37:13;;;;;;;;;5.00;5.00;;;;;3.14;100.00;100035.09;6214893;23;11518;-72
2022/01/03 11:39:41;;;;;;;;;10.75;10.75;;;;;3.06;100.00;100028.38;6225001;23;11485;-71
2022/01/03 11:42:37;;;;;;;;;7.00;7.00;;;;;3.08;100.00;100025.38;6220160;23;11521;-71
2022/01/03 11:45:33;;;;;;;;;9.50;9.50;;;;;3.21;100.00;100015.59;6215375;23;12217;-71
2022/01/03 11:48:29;;;;;;;;;7.75;7.75;;;;;3.16;100.00;100004.75;6231975;23;11504;-71
2022/01/03 11:51:30;;;;;;;;;14.50;14.50;;;;;3.22;100.00;100011.75;6213429;23;11506;-71
2022/01/03 11:54:26;;;;;;;;;13.50;11.75;;;;;3.15;100.00;100012.16;6215506;23;11510;-71
2022/01/03 12:03:40;;;;;;;;;12.75;12.75;;;;;3.04;100.00;100005.19;6215331;23;12227;-72
2022/01/03 12:06:36;;;;;;;;;14.75;14.75;;;;;3.20;100.00;100005.78;6213895;23;11672;-72
2022/01/03 12:09:16;;;;;;;;;13.75;13.75;;;;;3.14;100.00;100004.22;6239287;23;12208;-72
2022/01/03 12:12:33;;;;;;;;;16.25;14.00;;;;;3.28;100.00;99997.69;6232124;23;11580;-72
2022/01/03 12:15:32;;;;;;;;;19.50;18.25;;;;;3.35;100.00;99994.59;6215634;23;11539;-72
2022/01/03 12:18:27;;;;;;;;;13.50;13.50;;;;;3.38;100.00;99988.53;6214357;23;11537;-72
2022/01/03 12:20:55;;;;;;;;;8.00;8.00;;;;;3.33;100.00;99989.41;6222000;23;11535;-71
2022/01/03 12:23:50;;;;;;;;;15.00;14.00;;;;;3.55;100.00;99983.31;6215341;23;11630;-72
2022/01/03 12:26:19;;;;;;;;;6.00;6.00;;;;;3.56;100.00;99965.78;6215464;23;11545;-72
2022/01/03 12:29:05;;;;;;;;;13.75;13.75;;;;;3.68;100.00;99970.78;6214638;23;11497;-71
2022/01/03 12:32:11;;;;;;;;;15.25;15.25;;;;;3.71;100.00;99967.41;6215311;23;11553;-72
2022/01/03 12:34:41;;;;;;;;;13.50;13.50;;;;;3.61;100.00;99948.47;6246768;23;11545;-71
2022/01/03 12:37:38;;;;;;;;;15.00;15.00;;;;;3.57;100.00;99959.19;6214779;23;11538;-72
2022/01/03 12:40:43;;;;;;;;;17.50;13.75;;;;;3.62;100.00;99966.50;6213927;23;11520;-72
2022/01/03 12:43:17;;;;;;;;;21.00;19.75;;;;;3.68;100.00;99975.41;6216763;23;11470;-72
2022/01/03 12:46:15;;;;;;;;;20.00;19.00;;;;;3.73;100.00;99967.09;6213489;23;11484;-71
2022/01/03 12:48:43;;;;;;;;;15.75;15.75;;;;;3.69;100.00;99963.38;6221637;23;12235;-72
2022/01/03 12:51:39;;;;;;;;;19.50;18.50;;;;;3.68;100.00;99959.84;6193721;23;11519;-72
2022/01/03 12:54:39;;;;;;;;;17.75;17.75;;;;;3.68;100.00;99951.63;6213836;23;11583;-72
2022/01/03 12:57:35;;;;;;;;;17.00;17.00;;;;;3.83;100.00;99947.75;6214399;23;11536;-72
2022/01/03 13:00:03;;;;;;;;;15.75;15.75;;;;;3.74;100.00;99941.38;6224049;23;11472;-72
2022/01/03 13:02:39;;;;;;;;;15.75;15.75;;;;;3.75;100.00;99923.84;6223685;23;11548;-72
2022/01/03 13:05:35;;;;;;;;;16.25;16.00;;;;;3.57;100.00;99926.38;6213785;23;11492;-73
2022/01/03 13:08:40;;;;;;;;;24.00;23.25;;;;;3.60;100.00;99925.78;6213680;23;10991;-72
2022/01/03 13:11:11;;;;;;;;;20.75;19.00;;;;;3.72;100.00;99914.34;6188654;23;11557;-72
2022/01/03 13:13:40;;;;;;;;;19.75;19.75;;;;;3.63;100.00;99919.72;6198282;23;11538;-72
2022/01/03 13:16:39;;;;;;;;;25.50;24.00;;;;;3.71;100.00;99920.94;6199156;23;11498;-72
2022/01/03 13:19:36;;;;;;;;;22.75;22.75;;;;;3.72;100.00;99914.34;6201302;23;11655;-73
2022/01/03 13:22:34;;;;;;;;;30.25;30.25;;;;;3.80;100.00;99916.34;6194392;23;12197;-73
2022/01/03 13:25:16;;;;;;;;;30.50;28.75;;;;;3.87;100.00;99907.75;6223056;23;11490;-72
2022/01/03 13:28:12;;;;;;;;;26.25;26.25;;;;;3.86;100.00;99919.81;6212635;23;11527;-72
2022/01/03 13:31:03;;;;;;;;;26.25;26.25;;;;;3.80;100.00;99907.34;6214770;23;11508;-72
2022/01/03 13:33:41;;;;;;;;;29.50;27.25;;;;;3.72;100.00;99908.06;6224252;23;11658;-72
2022/01/03 13:36:43;;;;;;;;;32.50;28.75;;;;;3.68;100.00;99918.81;6213817;23;12234;-72
2022/01/03 13:39:13;;;;;;;;;24.50;22.50;;;;;3.76;100.00;99911.81;6197985;23;11603;-72
2022/01/03 13:42:20;;;;;;;;;27.50;24.25;;;;;3.68;100.00;99928.91;6194016;23;11547;-72
2022/01/03 13:51:11;;;;;;;;;27.50;26.50;;;;;3.53;100.00;99894.50;6215011;23;11565;-71
2022/01/03 13:54:07;;;;;;;;;29.00;28.25;;;;;3.70;100.00;99883.75;6231705;23;11538;-71
2022/01/03 13:57:05;;;;;;;;;35.75;35.75;;;;;3.51;100.00;99886.59;6231224;23;11591;-71
2022/01/03 14:00:01;;;;;;;;;31.75;31.75;;;;;3.49;100.00;99893.47;6232029;23;12308;-72